TimePDT,TemperatureF,Dew PointF,Humidity,Sea Level PressureIn,VisibilityMPH,Wind Direction,Wind SpeedMPH,Gust SpeedMPH,PrecipitationIn,Events,Conditions,WindDirDegrees,DateUTC
12:58 AM,68.9,47.5,46,29.88,10.0,Calm,Calm,-,N/A,,Clear,0,2013-08-07 07:58:00
1:58 AM,65.3,47.1,52,29.89,10.0,South,2.3,-,N/A,,Clear,180,2013-08-07 08:58:00
2:58 AM,60.8,47.1,61,29.89,10.0,SSW,4.6,-,N/A,,Clear,210,2013-08-07 09:58:00
3:58 AM,62.6,50.4,64,29.89,10.0,East,5.8,-,N/A,,Clear,100,2013-08-07 10:58:00
4:58 AM,58.5,51.1,76,29.89,10.0,East,2.3,-,N/A,,Clear,80,2013-08-07 11:58:00
5:58 AM,58.1,51.1,77,29.90,10.0,NE,4.6,-,N/A,,Clear,40,2013-08-07 12:58:00
6:37 AM,59.0,51.8,77,29.95,10.0,SE,5.8,-,N/A,,Light Drizzle,140,2013-08-07 13:37:00
6:42 AM,59.0,51.8,77,29.95,10.0,NE,2.3,-,N/A,,Clear,40,2013-08-07 13:42:00
6:43 AM,59.0,53.6,82,29.95,10.0,NNE,3.5,-,N/A,Rain,Light Rain,30,2013-08-07 13:43:00
6:47 AM,59.0,53.6,82,29.95,10.0,ENE,2.3,-,N/A,,Clear,70,2013-08-07 13:47:00
6:58 AM,60.6,53.1,76,29.91,10.0,NNE,3.5,-,0.00,,Clear,30,2013-08-07 13:58:00
7:58 AM,66.4,52.0,60,29.92,10.0,East,4.6,-,N/A,,Clear,90,2013-08-07 14:58:00
8:58 AM,70.9,49.1,46,29.93,10.0,SE,4.6,-,N/A,,Clear,140,2013-08-07 15:58:00
9:58 AM,74.8,49.5,41,29.94,10.0,East,1.2,-,N/A,,Clear,90,2013-08-07 16:58:00
10:57 AM,78.8,50.0,36,29.98,10.0,SW,5.8,-,N/A,,Light Drizzle,220,2013-08-07 17:57:00
10:58 AM,78.3,49.5,36,29.94,10.0,SW,5.8,-,N/A,,Light Drizzle,230,2013-08-07 17:58:00
11:00 AM,78.8,50.0,36,29.98,10.0,Variable,3.5,-,N/A,,Clear,0,2013-08-07 18:00:00
11:01 AM,78.8,48.2,34,29.98,10.0,Variable,4.6,-,N/A,Rain,Light Rain,0,2013-08-07 18:01:00
11:12 AM,78.8,48.2,34,29.98,10.0,Variable,4.6,-,N/A,,Clear,0,2013-08-07 18:12:00
11:24 AM,80.6,48.2,32,29.97,10.0,South,6.9,-,N/A,Rain,Light Rain,190,2013-08-07 18:24:00
11:56 AM,82.4,46.4,28,29.97,10.0,Variable,1.2,-,N/A,,Clear,0,2013-08-07 18:56:00
11:58 AM,82.4,46.4,28,29.93,10.0,Variable,4.6,-,0.00,,Clear,0,2013-08-07 18:58:00
11:59 AM,82.4,46.4,28,29.97,10.0,South,6.9,-,N/A,,Light Drizzle,180,2013-08-07 18:59:00
12:12 PM,82.4,46.4,28,29.97,10.0,South,8.1,-,N/A,,Clear,180,2013-08-07 19:12:00
12:25 PM,84.2,46.4,27,29.96,10.0,South,6.9,-,N/A,,Light Drizzle,170,2013-08-07 19:25:00
12:35 PM,84.2,46.4,27,29.97,10.0,SSE,5.8,-,N/A,,Clear,150,2013-08-07 19:35:00
12:38 PM,84.2,46.4,27,29.97,10.0,ESE,4.6,-,N/A,Rain,Light Rain,120,2013-08-07 19:38:00
12:40 PM,84.2,46.4,27,29.97,10.0,Variable,4.6,-,N/A,,Clear,0,2013-08-07 19:40:00
12:46 PM,84.2,46.4,27,29.97,10.0,SSE,9.2,-,N/A,Rain,Light Rain,150,2013-08-07 19:46:00
12:48 PM,84.2,44.6,25,29.97,10.0,Variable,3.5,-,N/A,,Clear,0,2013-08-07 19:48:00
12:51 PM,84.2,44.6,25,29.97,10.0,SSE,8.1,-,N/A,,Light Drizzle,160,2013-08-07 19:51:00
12:58 PM,84.6,44.6,25,29.92,10.0,SSE,8.1,-,0.00,,Light Drizzle,160,2013-08-07 19:58:00
1:08 PM,86.0,44.6,23,29.96,10.0,Variable,5.8,-,N/A,,Clear,0,2013-08-07 20:08:00
1:20 PM,86.0,44.6,23,29.96,10.0,SE,5.8,-,N/A,,Light Drizzle,140,2013-08-07 20:20:00
1:35 PM,86.0,44.6,23,29.96,10.0,South,10.4,-,N/A,,Clear,180,2013-08-07 20:35:00
1:49 PM,87.8,42.8,21,29.95,10.0,SE,5.8,-,N/A,Rain,Light Rain,130,2013-08-07 20:49:00
1:58 PM,86.2,43.2,22,29.91,10.0,South,6.9,-,0.00,Rain,Light Rain,170,2013-08-07 20:58:00
2:08 PM,87.8,42.8,21,29.95,10.0,SE,9.2,-,N/A,,Clear,140,2013-08-07 21:08:00
2:20 PM,87.8,42.8,21,29.95,10.0,Variable,6.9,-,N/A,,Light Drizzle,0,2013-08-07 21:20:00
2:30 PM,87.8,42.8,21,29.94,10.0,SSE,8.1,-,N/A,,Clear,160,2013-08-07 21:30:00
2:35 PM,87.8,42.8,21,29.94,10.0,SSW,10.4,-,N/A,,Light Drizzle,200,2013-08-07 21:35:00
2:42 PM,89.6,41.0,18,29.94,10.0,SW,4.6,-,N/A,,Clear,230,2013-08-07 21:42:00
2:43 PM,89.6,41.0,18,29.94,10.0,SW,5.8,-,N/A,,Light Drizzle,220,2013-08-07 21:43:00
2:53 PM,87.8,41.0,19,29.93,10.0,WSW,4.6,-,N/A,,Clear,250,2013-08-07 21:53:00
2:58 PM,88.3,42.1,20,29.89,10.0,South,9.2,-,0.00,,Clear,190,2013-08-07 21:58:00
3:13 PM,89.6,42.8,20,29.93,10.0,WSW,5.8,-,N/A,,Light Drizzle,250,2013-08-07 22:13:00
3:33 PM,89.6,41.0,18,29.92,10.0,South,6.9,-,N/A,,Clear,190,2013-08-07 22:33:00
3:58 PM,89.6,40.8,18,29.88,10.0,SSW,8.1,-,0.00,,Clear,200,2013-08-07 22:58:00
4:07 PM,89.6,39.2,17,29.91,10.0,Variable,3.5,-,N/A,,Light Drizzle,0,2013-08-07 23:07:00
4:09 PM,89.6,39.2,17,29.92,10.0,SSE,4.6,-,N/A,,Clear,160,2013-08-07 23:09:00
4:16 PM,89.6,39.2,17,29.91,10.0,Variable,5.8,-,N/A,,Light Drizzle,0,2013-08-07 23:16:00
4:17 PM,89.6,39.2,17,29.91,10.0,Variable,6.9,-,N/A,,Clear,0,2013-08-07 23:17:00
4:58 PM,90.0,39.0,17,29.86,10.0,South,8.1,-,0.00,,Clear,190,2013-08-07 23:58:00
5:58 PM,89.4,37.9,16,29.86,10.0,SW,8.1,-,N/A,,Clear,220,2013-08-08 00:58:00
6:58 PM,87.3,35.6,16,29.86,10.0,West,8.1,-,N/A,,Clear,280,2013-08-08 01:58:00
7:33 PM,84.2,41.0,22,29.90,10.0,WSW,5.8,-,N/A,,Light Drizzle,250,2013-08-08 02:33:00
7:43 PM,84.2,39.2,20,29.90,10.0,WSW,4.6,-,N/A,,Clear,250,2013-08-08 02:43:00
7:58 PM,82.9,38.8,21,29.86,10.0,SW,4.6,-,0.00,,Clear,220,2013-08-08 02:58:00
8:58 PM,77.5,37.2,23,29.87,10.0,South,6.9,-,N/A,,Clear,180,2013-08-08 03:58:00
9:58 PM,72.1,36.9,28,29.88,10.0,WSW,8.1,-,N/A,,Clear,240,2013-08-08 04:58:00
10:58 PM,67.8,38.8,35,29.88,10.0,WSW,8.1,-,N/A,,Clear,240,2013-08-08 05:58:00
11:58 PM,67.8,37.4,33,29.89,10.0,SW,10.4,-,N/A,,Clear,230,2013-08-08 06:58:00